Time;durP1;ratioP1;P1;durP2;ratioP2;P2;SDS_P1;SDS_P2;PMS_P1;PMS_P2;Temp;Humidity;BMP_temperature;BMP_pressure;BME280_temperature;BME280_humidity;BME280_pressure;Samples;Min_cycle;Max_cycle;Signal;HPM_P1;HPM_P2
2020/12/19 00:01:33;;;;;;;3.20;2.67;;;0.90;99.90;;;;;;5075280;28;20184;-76
2020/12/19 00:03:59;;;;;;;2.10;1.90;;;1.00;99.90;;;;;;5074697;28;20189;-77
2020/12/19 00:06:25;;;;;;;2.03;1.80;;;1.00;99.90;;;;;;5074073;28;20191;-77
2020/12/19 00:08:51;;;;;;;2.43;2.23;;;1.00;99.90;;;;;;5074408;28;20216;-76
2020/12/19 00:11:17;;;;;;;3.00;2.50;;;1.00;99.90;;;;;;5072391;28;20549;-77
2020/12/19 00:13:43;;;;;;;3.27;2.07;;;0.90;99.90;;;;;;5073980;28;20193;-77
2020/12/19 00:16:13;;;;;;;2.57;2.23;;;0.90;99.90;;;;;;5074365;28;20180;-77
2020/12/19 00:18:38;;;;;;;4.03;2.63;;;0.90;99.90;;;;;;5072471;28;20208;-77
2020/12/19 00:21:04;;;;;;;2.57;2.30;;;0.90;99.90;;;;;;5073521;28;20871;-78
2020/12/19 00:23:29;;;;;;;2.83;1.80;;;0.90;99.90;;;;;;5074074;28;20555;-76
2020/12/19 00:25:55;;;;;;;2.80;2.60;;;0.80;99.90;;;;;;5073730;28;20204;-77
2020/12/19 00:28:20;;;;;;;4.10;2.87;;;0.90;99.90;;;;;;5072682;28;20199;-77
2020/12/19 00:30:46;;;;;;;2.57;2.13;;;0.90;99.90;;;;;;5072406;28;20312;-76
2020/12/19 00:33:11;;;;;;;3.37;3.00;;;0.90;99.90;;;;;;5070748;28;20215;-77
2020/12/19 00:35:37;;;;;;;3.63;2.80;;;0.90;99.90;;;;;;5072098;28;20702;-76
2020/12/19 00:38:02;;;;;;;2.37;2.03;;;0.90;99.90;;;;;;5074116;28;20913;-76
2020/12/19 00:40:28;;;;;;;2.37;2.17;;;0.90;99.90;;;;;;5074191;28;20658;-76
2020/12/19 00:42:53;;;;;;;5.20;3.20;;;0.90;99.90;;;;;;5077182;28;20200;-77
2020/12/19 00:45:19;;;;;;;2.80;2.53;;;0.90;99.90;;;;;;5076409;28;21053;-76
2020/12/19 00:47:45;;;;;;;4.37;3.37;;;0.90;99.90;;;;;;5078498;28;20193;-76
2020/12/19 00:50:10;;;;;;;2.30;2.10;;;0.90;99.90;;;;;;5078662;28;20240;-77
2020/12/19 00:52:36;;;;;;;4.30;2.93;;;0.80;99.90;;;;;;5078571;28;20181;-77
2020/12/19 00:55:04;;;;;;;3.33;2.63;;;0.80;99.90;;;;;;5076190;28;20219;-77
2020/12/19 00:57:33;;;;;;;3.07;2.77;;;0.80;99.90;;;;;;5076231;28;20197;-76
2020/12/19 00:59:59;;;;;;;4.03;3.23;;;0.80;99.90;;;;;;5077830;28;20228;-77
2020/12/19 01:02:26;;;;;;;2.40;2.20;;;0.90;99.90;;;;;;5076831;28;20197;-77
2020/12/19 01:04:51;;;;;;;3.03;2.20;;;0.80;99.90;;;;;;5077322;28;20191;-76
2020/12/19 01:07:17;;;;;;;2.60;1.97;;;0.80;99.90;;;;;;5079091;28;20198;-76
2020/12/19 01:09:42;;;;;;;3.93;3.53;;;0.80;99.90;;;;;;5076933;28;20240;-76
2020/12/19 01:12:08;;;;;;;3.00;2.10;;;0.80;99.90;;;;;;5078358;28;20682;-77
2020/12/19 01:14:34;;;;;;;2.53;2.30;;;0.80;99.90;;;;;;5077738;28;20193;-77
2020/12/19 01:17:03;;;;;;;2.80;2.23;;;0.80;99.90;;;;;;5076882;28;20197;-78
2020/12/19 01:19:29;;;;;;;2.83;2.00;;;0.80;99.90;;;;;;5078096;28;20205;-77
2020/12/19 01:21:55;;;;;;;2.87;2.50;;;0.70;99.90;;;;;;5077400;28;20189;-77
2020/12/19 01:24:20;;;;;;;4.63;3.20;;;0.70;99.90;;;;;;5077327;28;20197;-77
2020/12/19 01:26:48;;;;;;;3.30;2.23;;;0.70;99.90;;;;;;5075394;28;20193;-76
2020/12/19 01:29:14;;;;;;;6.57;3.67;;;0.70;99.90;;;;;;5078152;28;20270;-78
2020/12/19 01:31:40;;;;;;;2.63;2.30;;;0.70;99.90;;;;;;5076713;28;20184;-76
2020/12/19 01:34:06;;;;;;;4.70;2.53;;;0.70;99.90;;;;;;5077500;28;20716;-78
2020/12/19 01:36:31;;;;;;;3.93;2.77;;;0.60;99.90;;;;;;5077829;28;20587;-77
2020/12/19 01:38:57;;;;;;;2.33;2.10;;;0.60;99.90;;;;;;5076661;28;20235;-76
2020/12/19 01:41:23;;;;;;;3.83;2.50;;;0.60;99.90;;;;;;5076267;28;20669;-77
2020/12/19 01:43:54;;;;;;;3.70;3.30;;;0.50;99.90;;;;;;5077488;28;20186;-76
2020/12/19 01:46:41;;;;;;;4.27;3.30;;;0.50;99.90;;;;;;5084075;28;20199;-77
2020/12/19 01:49:06;;;;;;;3.50;2.50;;;0.60;99.90;;;;;;5076522;28;20780;-77
2020/12/19 01:51:32;;;;;;;3.37;3.03;;;0.50;99.90;;;;;;5076241;28;20219;-77
2020/12/19 01:53:58;;;;;;;1.93;1.83;;;0.50;99.90;;;;;;5076746;28;20257;-76
2020/12/19 01:56:39;;;;;;;3.60;2.53;;;0.50;99.90;;;;;;5077193;28;20208;-77
2020/12/19 01:59:05;;;;;;;2.67;2.37;;;0.40;99.90;;;;;;5077077;28;21062;-77
2020/12/19 02:01:31;;;;;;;2.77;2.00;;;0.40;99.90;;;;;;5077382;28;20213;-77
2020/12/19 02:03:57;;;;;;;4.77;4.17;;;0.40;99.90;;;;;;5074772;28;20511;-77
2020/12/19 02:06:24;;;;;;;3.20;2.90;;;0.30;99.90;;;;;;5078036;28;20716;-78
2020/12/19 02:08:52;;;;;;;4.73;3.37;;;0.30;99.90;;;;;;5077126;28;20189;-77
2020/12/19 02:11:19;;;;;;;3.80;3.40;;;0.30;99.90;;;;;;5074879;28;20186;-77
2020/12/19 02:13:44;;;;;;;4.03;2.50;;;0.30;99.90;;;;;;5076157;28;20197;-76
2020/12/19 02:16:16;;;;;;;2.67;2.33;;;0.30;99.90;;;;;;5076888;28;20193;-76
2020/12/19 02:18:42;;;;;;;1.57;1.43;;;0.30;99.90;;;;;;5076037;28;20176;-78
2020/12/19 02:21:08;;;;;;;3.03;2.17;;;0.30;99.90;;;;;;5075714;28;20206;-77
2020/12/19 02:23:34;;;;;;;5.87;2.63;;;0.30;99.90;;;;;;5077522;28;20188;-76
2020/12/19 02:26:00;;;;;;;3.53;2.20;;;0.30;99.90;;;;;;5075520;28;20188;-76
2020/12/19 02:28:25;;;;;;;3.53;2.43;;;0.30;99.90;;;;;;5076338;28;20201;-78
2020/12/19 02:30:51;;;;;;;2.10;1.70;;;0.30;99.90;;;;;;5076619;28;20308;-77
2020/12/19 02:33:16;;;;;;;2.83;2.50;;;0.30;99.90;;;;;;5076341;28;20185;-77
2020/12/19 02:35:42;;;;;;;2.97;2.53;;;0.30;99.90;;;;;;5077910;28;20185;-77
2020/12/19 02:38:08;;;;;;;3.07;2.33;;;0.40;99.90;;;;;;5077161;28;20186;-76
2020/12/19 02:40:33;;;;;;;2.97;2.57;;;0.40;99.90;;;;;;5076029;28;20217;-77
2020/12/19 02:42:59;;;;;;;2.53;1.77;;;0.50;99.90;;;;;;5075229;28;20200;-78
2020/12/19 02:45:24;;;;;;;4.13;3.00;;;0.50;99.90;;;;;;5077896;28;20601;-77
2020/12/19 02:47:50;;;;;;;2.30;2.10;;;0.50;99.90;;;;;;5077028;28;20652;-76
2020/12/19 02:50:15;;;;;;;2.20;2.03;;;0.60;99.90;;;;;;5077211;28;20312;-77
2020/12/19 02:52:41;;;;;;;2.43;2.17;;;0.60;99.90;;;;;;5076578;28;20276;-77
2020/12/19 02:55:07;;;;;;;2.10;1.73;;;0.50;99.90;;;;;;5075898;28;20189;-77
2020/12/19 02:57:32;;;;;;;3.67;1.77;;;0.50;99.90;;;;;;5077419;28;20193;-76
2020/12/19 02:59:58;;;;;;;2.47;2.27;;;0.50;99.90;;;;;;5075169;28;21180;-77
2020/12/19 03:02:23;;;;;;;2.53;2.33;;;0.50;99.90;;;;;;5073725;28;20581;-76
2020/12/19 03:04:49;;;;;;;3.33;1.63;;;0.50;99.90;;;;;;5075749;28;20193;-79
2020/12/19 03:07:14;;;;;;;1.77;1.60;;;0.50;99.90;;;;;;5074375;28;20196;-77
2020/12/19 03:09:40;;;;;;;3.37;1.77;;;0.50;99.90;;;;;;5075840;28;20605;-77
2020/12/19 03:12:05;;;;;;;2.20;1.90;;;0.60;99.90;;;;;;5076443;28;20272;-77
2020/12/19 03:14:31;;;;;;;3.47;2.40;;;0.70;99.90;;;;;;5077672;28;20200;-77
2020/12/19 03:16:57;;;;;;;3.30;2.67;;;0.70;99.90;;;;;;5074638;28;20186;-76
2020/12/19 03:19:22;;;;;;;2.63;1.93;;;0.70;99.90;;;;;;5073894;28;20213;-77
2020/12/19 03:21:48;;;;;;;2.40;2.00;;;0.70;99.90;;;;;;5075131;28;20228;-77
2020/12/19 03:24:13;;;;;;;1.77;1.57;;;0.70;99.90;;;;;;5074008;28;20189;-77
2020/12/19 03:26:39;;;;;;;3.83;2.43;;;0.70;99.90;;;;;;5073100;28;20280;-78
2020/12/19 03:29:04;;;;;;;2.93;2.13;;;0.60;99.90;;;;;;5075735;28;20697;-77
2020/12/19 03:31:30;;;;;;;2.47;1.80;;;0.60;99.90;;;;;;5074242;28;20271;-77
2020/12/19 03:33:55;;;;;;;4.47;3.00;;;0.60;99.90;;;;;;5076984;28;20191;-77
2020/12/19 03:36:21;;;;;;;2.43;2.03;;;0.50;99.90;;;;;;5074662;28;20215;-77
2020/12/19 03:38:47;;;;;;;1.80;1.40;;;0.50;99.90;;;;;;5075302;28;20176;-77
2020/12/19 03:41:12;;;;;;;2.17;1.70;;;0.50;99.90;;;;;;5075072;28;20216;-76
2020/12/19 03:43:38;;;;;;;3.03;1.83;;;0.50;99.90;;;;;;5074674;28;20192;-77
2020/12/19 03:46:03;;;;;;;3.23;2.07;;;0.50;99.90;;;;;;5073785;28;20790;-77
2020/12/19 03:48:29;;;;;;;2.07;1.73;;;0.50;99.90;;;;;;5072670;28;20193;-77
2020/12/19 03:50:55;;;;;;;2.33;1.87;;;0.60;99.90;;;;;;5072643;28;20217;-78
2020/12/19 03:53:20;;;;;;;2.50;1.87;;;0.60;99.90;;;;;;5073605;28;20217;-77
2020/12/19 03:55:46;;;;;;;1.57;1.47;;;0.70;99.90;;;;;;5075006;28;20229;-77
2020/12/19 03:58:12;;;;;;;2.40;2.20;;;0.70;99.90;;;;;;5075340;28;20181;-77
2020/12/19 04:00:37;;;;;;;1.73;1.60;;;0.70;99.90;;;;;;5073194;28;20274;-78
2020/12/19 04:03:03;;;;;;;2.67;2.10;;;0.60;99.90;;;;;;5072998;28;20196;-76
2020/12/19 04:05:28;;;;;;;2.20;1.63;;;0.60;99.90;;;;;;5074136;28;20216;-77
2020/12/19 04:07:54;;;;;;;2.63;1.57;;;0.50;99.90;;;;;;5074314;28;20189;-77
2020/12/19 04:10:20;;;;;;;2.37;1.90;;;0.50;99.90;;;;;;5074946;28;20295;-77
2020/12/19 04:12:45;;;;;;;1.87;1.37;;;0.50;99.90;;;;;;5074360;28;20567;-77
2020/12/19 04:15:12;;;;;;;2.83;1.90;;;0.50;99.90;;;;;;5075203;28;20180;-77
2020/12/19 04:17:39;;;;;;;2.77;1.73;;;0.50;99.90;;;;;;5081146;28;20185;-78
2020/12/19 04:20:06;;;;;;;1.97;1.77;;;0.50;99.90;;;;;;5081916;28;20201;-77
2020/12/19 04:22:32;;;;;;;2.00;1.73;;;0.50;99.90;;;;;;5081644;28;20192;-77
2020/12/19 04:24:58;;;;;;;2.17;1.97;;;0.50;99.90;;;;;;5080577;28;20209;-78
2020/12/19 04:27:24;;;;;;;2.10;1.73;;;0.40;99.90;;;;;;5080111;28;20231;-77
2020/12/19 04:29:49;;;;;;;1.73;1.53;;;0.50;99.90;;;;;;5081669;28;20326;-77
2020/12/19 04:32:15;;;;;;;2.47;1.83;;;0.50;99.90;;;;;;5080984;28;20188;-77
2020/12/19 04:34:41;;;;;;;2.40;1.60;;;0.50;99.90;;;;;;5080790;28;20239;-77
2020/12/19 04:37:07;;;;;;;2.60;1.57;;;0.40;99.90;;;;;;5079097;28;20184;-76
2020/12/19 04:39:33;;;;;;;1.47;1.33;;;0.40;99.90;;;;;;5079286;28;20213;-77
2020/12/19 04:41:58;;;;;;;2.80;1.90;;;0.40;99.90;;;;;;5080932;28;20661;-79
2020/12/19 04:44:25;;;;;;;1.90;1.77;;;0.40;99.90;;;;;;5080029;28;20255;-76
2020/12/19 04:46:50;;;;;;;1.50;1.40;;;0.40;99.90;;;;;;5086828;28;20211;-78
2020/12/19 04:49:17;;;;;;;1.77;1.63;;;0.50;99.90;;;;;;5080773;28;20788;-77
2020/12/19 04:51:43;;;;;;;1.50;1.07;;;0.40;99.90;;;;;;5080072;28;20330;-77
2020/12/19 04:54:09;;;;;;;1.67;1.57;;;0.40;99.90;;;;;;5079483;28;20288;-77
2020/12/19 04:56:37;;;;;;;5.83;1.90;;;0.50;99.90;;;;;;5079872;28;20279;-77
2020/12/19 04:59:04;;;;;;;2.10;1.83;;;0.70;99.90;;;;;;5078901;28;20446;-77
2020/12/19 05:01:30;;;;;;;3.60;2.27;;;0.90;99.90;;;;;;5081481;28;20188;-77
2020/12/19 05:03:56;;;;;;;2.53;2.33;;;0.90;99.90;;;;;;5080782;28;20185;-77
2020/12/19 05:06:27;;;;;;;1.67;1.57;;;0.90;99.90;;;;;;5080283;28;20200;-77
2020/12/19 05:08:54;;;;;;;2.63;2.00;;;0.80;99.90;;;;;;5080410;28;20296;-78
2020/12/19 05:11:20;;;;;;;2.67;1.60;;;0.80;99.90;;;;;;5079762;28;20267;-76
2020/12/19 05:13:46;;;;;;;1.93;1.73;;;0.80;99.90;;;;;;5080614;28;20553;-76
2020/12/19 05:16:15;;;;;;;2.80;2.27;;;0.80;99.90;;;;;;5080618;28;20180;-78
2020/12/19 05:18:41;;;;;;;2.10;1.90;;;0.80;99.90;;;;;;5082209;28;20223;-76
2020/12/19 05:21:09;;;;;;;2.60;2.40;;;0.80;99.90;;;;;;5081429;28;20177;-79
2020/12/19 05:23:36;;;;;;;3.57;2.47;;;0.70;99.90;;;;;;5080746;28;20223;-77
2020/12/19 05:26:04;;;;;;;2.47;2.00;;;0.70;99.90;;;;;;5080752;28;20576;-78
2020/12/19 05:28:30;;;;;;;2.73;2.50;;;0.60;99.90;;;;;;5077146;28;20186;-77
2020/12/19 05:30:59;;;;;;;3.03;2.63;;;0.60;99.90;;;;;;5076613;28;20209;-78
2020/12/19 05:33:55;;;;;;;2.60;2.30;;;0.60;99.90;;;;;;5078209;28;20268;-76
2020/12/19 05:36:21;;;;;;;3.13;2.57;;;0.60;99.90;;;;;;5065093;28;20233;-77
2020/12/19 05:38:48;;;;;;;3.67;2.33;;;0.50;99.90;;;;;;5074952;28;20215;-77
2020/12/19 05:41:23;;;;;;;4.10;2.50;;;0.50;99.90;;;;;;5074866;28;20559;-76
2020/12/19 05:43:53;;;;;;;2.23;1.83;;;0.50;99.90;;;;;;5077318;28;20184;-77
2020/12/19 05:46:37;;;;;;;3.73;3.37;;;0.50;99.90;;;;;;5084074;28;20193;-77
2020/12/19 05:49:04;;;;;;;2.67;2.13;;;0.50;99.90;;;;;;5076275;28;20205;-77
2020/12/19 05:51:32;;;;;;;4.03;2.90;;;0.40;99.90;;;;;;5084637;28;20190;-77
2020/12/19 05:54:09;;;;;;;3.27;1.90;;;0.50;99.90;;;;;;5077660;28;20600;-76
2020/12/19 05:56:39;;;;;;;1.90;1.73;;;0.50;99.90;;;;;;5077017;28;20556;-77
2020/12/19 05:59:10;;;;;;;2.53;2.10;;;0.50;99.90;;;;;;5075476;28;20232;-77
2020/12/19 06:01:39;;;;;;;2.30;2.03;;;0.50;99.90;;;;;;5083935;28;20669;-76
2020/12/19 06:04:07;;;;;;;3.57;2.17;;;0.50;99.90;;;;;;5077395;28;20213;-76
2020/12/19 06:06:36;;;;;;;3.03;2.23;;;0.50;99.90;;;;;;5075852;28;20231;-77
2020/12/19 06:09:03;;;;;;;2.97;2.40;;;0.50;99.90;;;;;;5078346;28;20289;-77
2020/12/19 06:11:34;;;;;;;3.20;2.90;;;0.50;99.90;;;;;;5076753;28;20184;-77
2020/12/19 06:14:06;;;;;;;2.47;2.27;;;0.60;99.90;;;;;;5077560;28;20187;-77
2020/12/19 06:16:36;;;;;;;3.00;2.17;;;0.70;99.90;;;;;;5076443;28;20314;-78
2020/12/19 06:19:23;;;;;;;3.93;3.37;;;0.70;99.90;;;;;;5076513;28;20673;-77
2020/12/19 06:21:53;;;;;;;2.60;2.40;;;0.60;99.90;;;;;;5076236;28;20181;-77
2020/12/19 06:24:41;;;;;;;4.67;2.83;;;0.70;99.90;;;;;;5076310;28;20173;-77
2020/12/19 06:27:22;;;;;;;2.03;1.70;;;0.80;99.90;;;;;;5076796;28;20173;-77
2020/12/19 06:29:49;;;;;;;2.93;2.53;;;0.80;99.90;;;;;;5091975;28;20296;-77
2020/12/19 06:32:22;;;;;;;2.77;2.40;;;0.80;99.90;;;;;;5075273;28;20186;-77
2020/12/19 06:35:06;;;;;;;2.57;2.03;;;0.80;99.90;;;;;;5076750;28;20731;-78
2020/12/19 06:37:34;;;;;;;2.97;2.60;;;0.80;99.90;;;;;;5074258;28;20184;-77
2020/12/19 06:40:18;;;;;;;2.70;2.47;;;0.90;99.90;;;;;;5075489;28;20281;-79
2020/12/19 06:42:45;;;;;;;2.63;2.13;;;0.80;99.90;;;;;;5075691;28;20169;-76
2020/12/19 06:45:27;;;;;;;4.43;2.83;;;0.70;99.90;;;;;;5075150;28;20558;-77
2020/12/19 06:47:54;;;;;;;2.70;2.33;;;0.70;99.90;;;;;;5075978;28;20227;-76
2020/12/19 06:50:20;;;;;;;2.73;2.03;;;0.70;99.90;;;;;;5075388;28;20224;-77
2020/12/19 06:52:59;;;;;;;6.43;4.07;;;0.80;99.90;;;;;;5075765;28;20242;-77
2020/12/19 06:55:27;;;;;;;5.27;2.97;;;1.00;99.90;;;;;;5076897;28;20180;-77
2020/12/19 06:57:57;;;;;;;3.93;2.63;;;1.10;99.90;;;;;;5074315;28;21013;-76
2020/12/19 07:00:31;;;;;;;3.47;2.97;;;1.20;99.90;;;;;;5076966;28;20220;-77
2020/12/19 07:02:58;;;;;;;2.70;2.47;;;1.20;99.90;;;;;;5082704;28;20189;-78
2020/12/19 07:05:29;;;;;;;3.43;3.10;;;1.20;99.90;;;;;;5075102;28;20181;-77
2020/12/19 07:08:18;;;;;;;4.63;3.23;;;1.30;99.90;;;;;;5075529;28;20280;-77
2020/12/19 07:10:45;;;;;;;2.83;2.20;;;1.50;99.90;;;;;;5074599;28;20820;-78
2020/12/19 07:13:12;;;;;;;4.20;2.80;;;1.50;99.90;;;;;;5074153;28;20235;-77
2020/12/19 07:15:45;;;;;;;3.40;2.83;;;1.50;99.90;;;;;;5075124;28;20181;-77
2020/12/19 07:18:29;;;;;;;3.07;2.67;;;1.50;99.90;;;;;;5072639;28;20181;-77
2020/12/19 07:21:09;;;;;;;6.20;4.13;;;1.70;99.90;;;;;;5074710;28;20382;-76
2020/12/19 07:23:37;;;;;;;3.13;2.70;;;1.70;99.90;;;;;;5071868;28;20181;-76
2020/12/19 07:26:03;;;;;;;2.50;2.23;;;1.60;99.90;;;;;;5071138;28;20189;-73
2020/12/19 07:28:29;;;;;;;3.57;2.53;;;1.60;99.90;;;;;;5073822;28;20674;-74
2020/12/19 07:30:55;;;;;;;4.00;3.03;;;1.50;99.90;;;;;;5071215;28;20213;-75
2020/12/19 07:33:21;;;;;;;2.03;1.83;;;1.50;99.90;;;;;;5074768;28;20189;-75
2020/12/19 07:35:47;;;;;;;4.63;3.57;;;1.40;99.90;;;;;;5072960;28;20230;-75
2020/12/19 07:38:13;;;;;;;4.53;3.03;;;1.40;99.90;;;;;;5074602;28;20556;-72
2020/12/19 07:40:39;;;;;;;4.07;3.67;;;1.40;99.90;;;;;;5071947;28;20209;-72
2020/12/19 07:43:09;;;;;;;7.67;4.93;;;1.30;99.90;;;;;;5072786;28;20213;-75
2020/12/19 07:45:36;;;;;;;3.27;2.97;;;1.30;99.90;;;;;;5070752;28;20189;-79
2020/12/19 07:48:03;;;;;;;3.23;2.53;;;1.20;99.90;;;;;;5074077;28;20204;-79
2020/12/19 07:50:31;;;;;;;2.70;2.30;;;1.20;99.90;;;;;;5073109;28;20216;-79
2020/12/19 07:53:00;;;;;;;3.73;3.03;;;1.10;99.90;;;;;;5073818;28;20188;-78
2020/12/19 07:55:26;;;;;;;4.57;3.77;;;1.10;99.90;;;;;;5081336;28;20192;-78
2020/12/19 07:57:55;;;;;;;3.30;3.00;;;1.10;99.90;;;;;;5072716;28;20189;-77
2020/12/19 08:00:22;;;;;;;3.07;2.83;;;1.10;99.90;;;;;;5072721;28;20748;-78
2020/12/19 08:02:47;;;;;;;3.43;2.67;;;1.10;99.90;;;;;;5075058;28;20277;-79
2020/12/19 08:05:13;;;;;;;5.97;4.27;;;1.10;99.90;;;;;;5073195;28;20661;-77
2020/12/19 08:07:39;;;;;;;3.30;3.00;;;1.20;99.90;;;;;;5074176;28;20230;-78
2020/12/19 08:10:09;;;;;;;4.33;3.20;;;1.20;99.90;;;;;;5073018;28;20250;-78
2020/12/19 08:12:36;;;;;;;7.10;6.40;;;1.30;99.90;;;;;;5073832;28;20188;-80
2020/12/19 08:15:11;;;;;;;4.80;4.40;;;1.60;99.90;;;;;;5073762;28;20180;-78
2020/12/19 08:17:45;;;;;;;5.07;4.17;;;1.60;99.90;;;;;;5072536;28;20191;-78
2020/12/19 08:20:12;;;;;;;4.90;3.47;;;1.80;99.90;;;;;;5074577;28;20215;-78
2020/12/19 08:22:38;;;;;;;6.07;5.13;;;1.90;99.90;;;;;;5073259;28;20181;-79
2020/12/19 08:25:03;;;;;;;5.43;4.00;;;2.10;99.90;;;;;;5072569;28;20199;-78
2020/12/19 08:27:40;;;;;;;4.63;3.63;;;2.20;99.90;;;;;;5072261;28;20725;-80
2020/12/19 08:30:30;;;;;;;8.13;3.17;;;2.30;99.90;;;;;;5073321;28;20215;-78
2020/12/19 08:33:01;;;;;;;2.70;2.50;;;2.30;99.90;;;;;;5069167;28;20289;-79
2020/12/19 08:35:43;;;;;;;6.37;4.97;;;2.30;99.90;;;;;;5072262;28;20269;-77
2020/12/19 08:38:12;;;;;;;5.57;4.57;;;2.30;99.90;;;;;;5073631;28;20184;-78
2020/12/19 08:40:38;;;;;;;9.63;7.13;;;2.20;99.90;;;;;;5072745;28;20197;-79
2020/12/19 08:43:04;;;;;;;5.30;4.30;;;2.20;99.90;;;;;;5071940;28;20257;-79
2020/12/19 08:45:37;;;;;;;5.03;3.67;;;2.20;99.90;;;;;;5070476;28;20685;-79
2020/12/19 08:48:24;;;;;;;3.03;2.27;;;2.30;99.90;;;;;;5070272;28;20182;-79
2020/12/19 08:50:51;;;;;;;3.60;2.83;;;2.30;99.90;;;;;;5071728;28;20205;-79
2020/12/19 08:53:20;;;;;;;4.97;3.27;;;2.30;99.90;;;;;;5072201;28;20922;-78
2020/12/19 08:55:47;;;;;;;4.47;3.73;;;2.40;99.90;;;;;;5072951;28;20292;-80
2020/12/19 08:58:23;;;;;;;4.20;3.00;;;2.50;99.90;;;;;;5080469;28;20178;-77
2020/12/19 09:00:50;;;;;;;4.70;3.37;;;2.70;99.90;;;;;;5072733;28;20223;-80
2020/12/19 09:03:31;;;;;;;3.40;3.10;;;2.80;99.90;;;;;;5077350;28;20192;-79
2020/12/19 09:06:02;;;;;;;3.77;3.37;;;2.90;99.90;;;;;;5077680;28;20184;-78
2020/12/19 09:08:37;;;;;;;3.10;2.80;;;3.00;99.90;;;;;;5077411;28;20184;-78
2020/12/19 09:11:05;;;;;;;3.50;3.23;;;3.00;99.90;;;;;;5076610;28;21305;-78
2020/12/19 09:13:32;;;;;;;5.27;3.70;;;3.00;99.90;;;;;;5077947;28;20205;-78
2020/12/19 09:16:12;;;;;;;3.00;2.73;;;3.00;99.90;;;;;;5078276;28;20173;-78
2020/12/19 09:18:40;;;;;;;3.90;2.80;;;2.90;99.90;;;;;;5077891;28;20754;-77
2020/12/19 09:21:08;;;;;;;3.73;3.40;;;2.90;99.90;;;;;;5077319;28;20188;-77
2020/12/19 09:23:34;;;;;;;5.10;3.63;;;3.00;99.90;;;;;;5077627;28;20182;-78
2020/12/19 09:26:02;;;;;;;3.70;2.97;;;3.00;99.90;;;;;;5074661;28;20190;-77
2020/12/19 09:28:29;;;;;;;5.60;3.70;;;3.10;99.90;;;;;;5079470;28;20184;-78
2020/12/19 09:30:57;;;;;;;7.70;4.87;;;3.10;99.90;;;;;;5076458;28;20241;-78
2020/12/19 09:33:23;;;;;;;4.60;3.20;;;3.20;99.90;;;;;;5080265;28;20229;-78
2020/12/19 09:35:49;;;;;;;6.70;3.97;;;3.30;99.90;;;;;;5078038;28;20235;-78
2020/12/19 09:38:15;;;;;;;5.33;3.43;;;3.50;99.90;;;;;;5078827;28;20876;-78
2020/12/19 09:40:41;;;;;;;5.23;3.50;;;3.60;99.90;;;;;;5079719;28;20202;-78
2020/12/19 09:43:07;;;;;;;3.73;2.77;;;3.90;99.90;;;;;;5079587;28;20232;-78
2020/12/19 09:45:35;;;;;;;4.13;3.20;;;4.10;99.90;;;;;;5078503;28;20180;-77
2020/12/19 09:48:01;;;;;;;7.30;5.30;;;4.20;99.90;;;;;;5078924;28;20695;-78
2020/12/19 09:50:27;;;;;;;4.03;3.07;;;4.40;99.90;;;;;;5081090;28;20299;-77
2020/12/19 09:52:53;;;;;;;3.63;3.10;;;4.50;99.90;;;;;;5079735;28;20174;-78
2020/12/19 09:55:20;;;;;;;4.30;3.10;;;4.60;99.90;;;;;;5078213;28;20673;-77
2020/12/19 09:57:46;;;;;;;9.37;4.37;;;4.60;99.90;;;;;;5077216;28;20716;-78
2020/12/19 10:00:12;;;;;;;4.20;3.50;;;4.80;99.90;;;;;;5075098;28;20235;-77
2020/12/19 10:02:40;;;;;;;4.10;3.03;;;4.90;99.90;;;;;;5075836;28;21127;-75
2020/12/19 10:05:06;;;;;;;3.67;3.13;;;4.90;99.90;;;;;;5090593;28;20230;-78
2020/12/19 10:07:33;;;;;;;6.47;4.23;;;5.00;99.90;;;;;;5076080;28;20189;-77
2020/12/19 10:09:59;;;;;;;8.77;6.47;;;5.00;99.90;;;;;;5074578;28;20248;-77
2020/12/19 10:12:25;;;;;;;9.00;6.73;;;5.00;99.90;;;;;;5075323;28;20181;-77
2020/12/19 10:14:51;;;;;;;5.53;4.67;;;5.00;99.90;;;;;;5074110;28;20238;-78
2020/12/19 10:17:17;;;;;;;5.73;4.20;;;5.10;99.90;;;;;;5076981;28;20181;-77
2020/12/19 10:19:43;;;;;;;5.97;3.53;;;5.20;99.90;;;;;;5077405;28;20262;-76
2020/12/19 10:22:08;;;;;;;5.77;3.70;;;5.20;99.90;;;;;;5075620;28;20671;-78
2020/12/19 10:24:34;;;;;;;4.17;3.47;;;5.20;99.90;;;;;;5078102;28;20184;-77
2020/12/19 10:27:00;;;;;;;4.70;3.67;;;5.40;99.90;;;;;;5076399;28;20231;-78
2020/12/19 10:29:25;;;;;;;4.83;3.30;;;5.50;99.90;;;;;;5075513;28;20684;-77
2020/12/19 10:31:51;;;;;;;4.63;3.80;;;5.60;99.90;;;;;;5075717;28;20753;-77
2020/12/19 10:34:17;;;;;;;5.07;3.70;;;5.70;99.90;;;;;;5076724;28;20235;-77
2020/12/19 10:36:42;;;;;;;9.03;7.97;;;5.80;99.90;;;;;;5076384;28;20549;-77
2020/12/19 10:39:08;;;;;;;6.80;4.53;;;5.80;99.90;;;;;;5076300;28;20196;-77
2020/12/19 10:41:34;;;;;;;10.27;9.10;;;6.00;99.90;;;;;;5077902;28;20684;-77
2020/12/19 10:43:59;;;;;;;10.00;6.13;;;6.10;99.90;;;;;;5077638;28;20433;-77
2020/12/19 10:46:27;;;;;;;10.10;7.27;;;6.30;99.90;;;;;;5076902;28;20186;-77
2020/12/19 10:48:53;;;;;;;6.07;4.83;;;6.40;99.90;;;;;;5079966;28;20193;-79
2020/12/19 10:51:26;;;;;;;7.93;5.80;;;6.40;99.90;;;;;;5080207;28;20266;-78
2020/12/19 10:53:52;;;;;;;9.57;6.07;;;6.50;99.90;;;;;;5083767;28;20184;-76
2020/12/19 10:56:18;;;;;;;8.43;5.83;;;6.60;99.90;;;;;;5077805;28;20263;-77
2020/12/19 10:58:44;;;;;;;10.87;7.07;;;6.80;99.90;;;;;;5072340;28;20247;-76
2020/12/19 11:01:10;;;;;;;6.00;3.53;;;6.80;99.90;;;;;;5073562;28;20245;-78
2020/12/19 11:03:36;;;;;;;4.13;3.30;;;7.00;99.90;;;;;;5086535;28;20185;-78
2020/12/19 11:06:01;;;;;;;6.03;4.93;;;6.90;99.90;;;;;;5088090;28;20219;-78
2020/12/19 11:08:27;;;;;;;7.30;4.13;;;7.00;99.90;;;;;;5088558;28;20181;-77
2020/12/19 11:10:53;;;;;;;9.67;5.77;;;7.10;99.90;;;;;;5078468;28;20224;-77
2020/12/19 11:13:18;;;;;;;11.93;7.73;;;7.20;99.90;;;;;;5068436;28;20266;-78
2020/12/19 11:15:44;;;;;;;7.90;5.27;;;7.20;99.90;;;;;;5066589;28;20235;-77
2020/12/19 11:18:09;;;;;;;7.27;4.97;;;7.30;99.90;;;;;;5072850;28;20196;-77
2020/12/19 11:20:35;;;;;;;19.67;11.20;;;7.40;99.90;;;;;;5087698;28;20213;-78
2020/12/19 11:23:01;;;;;;;5.73;3.47;;;7.50;99.90;;;;;;5080785;28;20207;-78
2020/12/19 11:25:26;;;;;;;5.03;2.90;;;7.50;99.90;;;;;;5078395;28;20192;-77
2020/12/19 11:27:52;;;;;;;6.70;4.13;;;7.50;99.90;;;;;;5067277;28;20193;-77
2020/12/19 11:30:17;;;;;;;9.87;5.63;;;7.60;99.90;;;;;;5074156;28;20221;-77
2020/12/19 11:32:43;;;;;;;10.77;7.13;;;7.70;99.90;;;;;;5074760;28;20219;-77
2020/12/19 11:35:09;;;;;;;7.47;5.87;;;7.80;99.90;;;;;;5077465;28;20485;-78
2020/12/19 11:37:35;;;;;;;5.07;4.27;;;7.80;99.90;;;;;;5067665;28;20186;-77
2020/12/19 11:40:00;;;;;;;3.77;3.10;;;7.90;99.90;;;;;;5081487;28;20357;-77
2020/12/19 11:42:26;;;;;;;4.77;3.53;;;8.00;99.90;;;;;;5080650;28;20189;-79
2020/12/19 11:45:04;;;;;;;3.73;2.87;;;8.10;99.90;;;;;;5070982;28;20192;-76
2020/12/19 11:47:30;;;;;;;8.03;3.47;;;8.10;99.90;;;;;;5075615;28;20543;-81
2020/12/19 11:49:55;;;;;;;3.97;3.10;;;8.20;99.90;;;;;;5067927;28;20281;-78
2020/12/19 11:52:21;;;;;;;4.37;3.97;;;8.30;99.90;;;;;;5074929;28;20189;-79
2020/12/19 11:54:47;;;;;;;3.60;2.60;;;8.40;99.90;;;;;;5071693;28;20706;-77
2020/12/19 11:57:13;;;;;;;6.03;2.40;;;8.50;99.90;;;;;;5070581;28;20187;-77
2020/12/19 11:59:38;;;;;;;3.20;2.20;;;8.50;99.90;;;;;;5071477;28;20631;-78
2020/12/19 12:02:04;;;;;;;4.97;3.60;;;8.60;99.90;;;;;;5064020;28;20189;-77
2020/12/19 12:04:30;;;;;;;2.70;2.20;;;8.60;99.90;;;;;;5069241;28;20186;-78
2020/12/19 12:06:56;;;;;;;2.23;2.00;;;8.60;99.90;;;;;;5068033;28;20190;-78
2020/12/19 12:09:21;;;;;;;3.50;2.50;;;8.70;99.90;;;;;;5075092;28;20769;-76
2020/12/19 12:11:47;;;;;;;4.73;2.97;;;8.80;99.90;;;;;;5069859;28;20181;-75
2020/12/19 12:14:13;;;;;;;3.20;2.30;;;8.80;99.90;;;;;;5067928;28;20181;-71
2020/12/19 12:16:39;;;;;;;12.10;9.63;;;8.90;99.90;;;;;;5054320;28;20189;-79
2020/12/19 12:19:04;;;;;;;4.17;3.73;;;8.90;99.90;;;;;;5074092;28;20205;-77
2020/12/19 12:21:37;;;;;;;4.43;4.03;;;8.90;99.90;;;;;;5076707;28;20201;-77
2020/12/19 12:24:04;;;;;;;3.27;2.53;;;9.00;99.90;;;;;;5076004;28;20184;-74
2020/12/19 12:26:30;;;;;;;2.43;2.07;;;9.10;99.90;;;;;;5072760;28;20260;-76
2020/12/19 12:28:57;;;;;;;3.47;3.17;;;9.00;99.90;;;;;;5074441;28;20212;-79
2020/12/19 12:31:27;;;;;;;3.60;2.53;;;9.00;99.90;;;;;;5074845;28;20241;-79
2020/12/19 12:33:53;;;;;;;3.20;2.90;;;9.10;99.90;;;;;;5074297;28;20974;-78
2020/12/19 12:36:20;;;;;;;3.97;2.63;;;9.20;99.90;;;;;;5072753;28;20262;-78
2020/12/19 12:38:46;;;;;;;5.87;4.40;;;9.20;99.90;;;;;;5078875;28;20253;-77
2020/12/19 12:41:12;;;;;;;2.87;2.27;;;9.10;99.90;;;;;;5078905;28;20360;-77
2020/12/19 12:43:38;;;;;;;2.23;2.03;;;9.10;99.90;;;;;;5078857;28;21227;-78
2020/12/19 12:46:07;;;;;;;2.87;2.17;;;9.20;99.90;;;;;;5078615;28;20190;-79
2020/12/19 12:48:33;;;;;;;1.27;1.17;;;9.20;99.90;;;;;;5080248;28;20192;-80
2020/12/19 12:50:59;;;;;;;1.37;1.27;;;9.30;99.90;;;;;;5076990;28;20213;-78
2020/12/19 12:53:24;;;;;;;2.50;1.73;;;9.40;99.90;;;;;;5077362;28;20238;-78
2020/12/19 12:55:50;;;;;;;1.60;1.30;;;9.40;99.90;;;;;;5078191;28;20190;-78
2020/12/19 12:58:16;;;;;;;3.50;1.20;;;9.50;99.90;;;;;;5077212;28;20186;-79
2020/12/19 13:00:41;;;;;;;2.60;1.93;;;9.60;99.90;;;;;;5078431;28;20285;-79